createdAt,value
2022-08-07T00:04:29.369Z,0.00
2022-08-07T00:09:35.777Z,0.00
2022-08-07T00:14:31.828Z,0.00
2022-08-07T00:19:59.737Z,0.00
2022-08-07T00:24:32.007Z,0.00
2022-08-07T00:29:37.116Z,0.00
2022-08-07T00:34:33.414Z,0.00
2022-08-07T00:39:32.813Z,0.00
2022-08-07T00:44:34.935Z,0.00
2022-08-07T00:50:21.368Z,0.00
2022-08-07T00:54:36.332Z,0.00
2022-08-07T00:59:36.222Z,0.00
2022-08-07T01:04:43.856Z,0.00
2022-08-07T01:10:04.030Z,0.00
2022-08-07T01:14:37.042Z,0.00
2022-08-07T01:19:38.333Z,0.00
2022-08-07T01:24:37.972Z,0.00
2022-08-07T01:29:37.082Z,0.00
2022-08-07T01:34:38.269Z,0.00
2022-08-07T01:39:46.439Z,0.00
2022-08-07T01:44:40.380Z,0.00
2022-08-07T01:49:43.487Z,0.00
2022-08-07T01:54:42.634Z,0.00
2022-08-07T01:59:45.265Z,0.00
2022-08-07T02:04:55.856Z,0.00
2022-08-07T02:09:58.589Z,0.00
2022-08-07T02:14:48.309Z,0.00
2022-08-07T02:20:07.075Z,0.00
2022-08-07T02:24:48.562Z,0.00
2022-08-07T02:29:54.265Z,0.00
2022-08-07T02:34:51.349Z,0.00
2022-08-07T02:40:02.497Z,0.00
2022-08-07T02:44:48.908Z,0.00
2022-08-07T02:49:57.693Z,0.00
2022-08-07T02:54:50.146Z,0.00
2022-08-07T02:59:55.201Z,0.00
2022-08-07T03:04:51.148Z,0.00
2022-08-07T03:09:52.479Z,0.00
2022-08-07T03:14:52.684Z,0.00
2022-08-07T03:19:54.777Z,0.00
2022-08-07T03:24:52.367Z,0.00
2022-08-07T03:29:53.551Z,0.00
2022-08-07T03:35:00.816Z,0.00
2022-08-07T03:40:14.797Z,4.00
2022-08-07T03:44:53.402Z,4.00
2022-08-07T03:49:53.845Z,4.00
2022-08-07T03:54:54.259Z,12.00
2022-08-07T04:00:02.806Z,20.00
2022-08-07T04:04:56.452Z,36.00
2022-08-07T04:09:55.756Z,48.00
2022-08-07T04:14:56.235Z,64.00
2022-08-07T04:19:56.506Z,88.00
2022-08-07T04:24:58.152Z,120.00
2022-08-07T04:30:01.075Z,160.00
2022-08-07T04:34:59.927Z,208.00
2022-08-07T04:40:00.270Z,264.00
2022-08-07T04:45:03.208Z,344.00
2022-08-07T04:50:04.155Z,412.00
2022-08-07T04:55:15.655Z,492.00
2022-08-07T05:00:12.779Z,608.00
2022-08-07T05:05:03.787Z,688.00
2022-08-07T05:10:04.643Z,792.00
2022-08-07T05:15:05.636Z,884.00
2022-08-07T05:20:09.422Z,848.00
2022-08-07T05:25:08.606Z,916.00
2022-08-07T05:30:05.820Z,1080.00
2022-08-07T05:35:07.984Z,1148.00
2022-08-07T05:40:19.114Z,1172.00
2022-08-07T05:45:14.336Z,1444.00
2022-08-07T05:50:10.021Z,1712.00
2022-08-07T05:55:10.748Z,1608.00
2022-08-07T06:00:15.927Z,1772.00
2022-08-07T06:05:15.896Z,1632.00
2022-08-07T06:10:11.350Z,1656.00
2022-08-07T06:15:15.297Z,1520.00
2022-08-07T06:20:12.351Z,1724.00
2022-08-07T06:25:12.312Z,1860.00
2022-08-07T06:30:32.454Z,1956.00
2022-08-07T06:35:17.973Z,2148.00
2022-08-07T06:40:20.383Z,2104.00
2022-08-07T06:45:15.486Z,2184.00
2022-08-07T06:50:15.497Z,2392.00
2022-08-07T06:55:33.578Z,2900.00
2022-08-07T07:00:18.245Z,3036.00
2022-08-07T07:06:04.990Z,3124.00
2022-08-07T07:10:16.514Z,3224.00
2022-08-07T07:15:23.864Z,3496.00
2022-08-07T07:20:17.495Z,3624.00
2022-08-07T07:26:34.378Z,3440.00
2022-08-07T07:30:32.443Z,3312.00
2022-08-07T07:35:19.160Z,3988.00
2022-08-07T07:40:18.788Z,4404.00
2022-08-07T07:45:22.707Z,4984.00
2022-08-07T07:50:32.841Z,5972.00
2022-08-07T07:55:19.834Z,7524.00
2022-08-07T08:00:29.487Z,7500.00
2022-08-07T08:05:23.004Z,7712.00
2022-08-07T08:10:38.117Z,8636.00
2022-08-07T08:18:36.674Z,8920.00
2022-08-07T08:20:27.385Z,8900.00
2022-08-07T08:25:26.841Z,10020.00
2022-08-07T08:30:22.888Z,10640.00
2022-08-07T08:35:22.444Z,10840.00
2022-08-07T08:40:28.991Z,11112.00
2022-08-07T08:45:26.736Z,11344.00
2022-08-07T08:50:34.711Z,11036.00
2022-08-07T08:55:54.868Z,10996.00
2022-08-07T09:00:24.553Z,11600.00
2022-08-07T09:05:37.420Z,11924.00
2022-08-07T09:10:23.878Z,11468.00
2022-08-07T09:16:23.193Z,10132.00
2022-08-07T09:20:35.208Z,10116.00
2022-08-07T09:25:24.696Z,8312.00
2022-08-07T09:30:25.539Z,7444.00
2022-08-07T09:36:04.845Z,7800.00
2022-08-07T09:40:24.347Z,7512.00
2022-08-07T09:47:24.642Z,6920.00
2022-08-07T09:50:26.478Z,7076.00
2022-08-07T09:55:29.355Z,6768.00
2022-08-07T10:00:24.354Z,6120.00
2022-08-07T10:05:29.801Z,5792.00
2022-08-07T10:10:24.178Z,6188.00
2022-08-07T10:15:27.320Z,6056.00
2022-08-07T10:20:31.826Z,6088.00
2022-08-07T10:25:42.291Z,6624.00
2022-08-07T10:30:27.371Z,6900.00
2022-08-07T10:35:56.259Z,6084.00
2022-08-07T10:40:30.341Z,5680.00
2022-08-07T10:45:45.219Z,6364.00
2022-08-07T10:50:28.664Z,7292.00
2022-08-07T10:55:37.748Z,7836.00
2022-08-07T11:00:39.441Z,7680.00
2022-08-07T11:05:35.616Z,8024.00
2022-08-07T11:10:29.399Z,8064.00
2022-08-07T11:15:31.759Z,8448.00
2022-08-07T11:20:31.216Z,8480.00
2022-08-07T11:25:36.221Z,9796.00
2022-08-07T11:30:41.552Z,10556.00
2022-08-07T11:35:32.566Z,10860.00
2022-08-07T11:40:32.504Z,11576.00
2022-08-07T11:45:36.135Z,11172.00
2022-08-07T11:50:33.697Z,11384.00
2022-08-07T11:56:15.590Z,11312.00
2022-08-07T12:00:34.864Z,10800.00
2022-08-07T12:05:41.638Z,10724.00
2022-08-07T12:10:35.718Z,10756.00
2022-08-07T12:16:05.428Z,10304.00
2022-08-07T12:20:36.438Z,10012.00
2022-08-07T12:26:03.272Z,8924.00
2022-08-07T12:30:35.825Z,9252.00
2022-08-07T12:35:37.002Z,9112.00
2022-08-07T12:40:48.486Z,8560.00
2022-08-07T12:45:39.133Z,8504.00
2022-08-07T12:50:49.438Z,8232.00
2022-08-07T12:55:41.065Z,7272.00
2022-08-07T13:00:41.643Z,6860.00
2022-08-07T13:06:02.632Z,6824.00
2022-08-07T13:10:44.783Z,6632.00
2022-08-07T13:15:39.425Z,5760.00
2022-08-07T13:20:41.066Z,6120.00
2022-08-07T13:25:41.642Z,5560.00
2022-08-07T13:30:43.851Z,4760.00
2022-08-07T13:35:59.745Z,5288.00
2022-08-07T13:40:42.748Z,5976.00
2022-08-07T13:46:12.858Z,6532.00
2022-08-07T13:50:44.866Z,6744.00
2022-08-07T13:55:54.386Z,5000.00
2022-08-07T14:00:54.352Z,3748.00
2022-08-07T14:05:42.292Z,3544.00
2022-08-07T14:10:43.679Z,3620.00
2022-08-07T14:15:42.882Z,3736.00
2022-08-07T14:20:48.773Z,3284.00
2022-08-07T14:25:47.875Z,2816.00
2022-08-07T14:30:46.357Z,3044.00
2022-08-07T14:35:47.602Z,3344.00
2022-08-07T14:40:49.382Z,3440.00
2022-08-07T14:50:46.668Z,2940.00
2022-08-07T15:00:48.088Z,3068.00
2022-08-07T15:05:54.617Z,3276.00
2022-08-07T15:25:50.181Z,2492.00
2022-08-07T15:36:02.431Z,2168.00
2022-08-07T15:41:00.306Z,2916.00
2022-08-07T15:45:58.332Z,4048.00
2022-08-07T15:51:08.020Z,4280.00
2022-08-07T15:56:02.761Z,5060.00
2022-08-07T16:00:54.821Z,5344.00
2022-08-07T16:05:55.015Z,5200.00
2022-08-07T16:10:55.126Z,4464.00
2022-08-07T16:15:57.920Z,4340.00
2022-08-07T16:20:55.214Z,4520.00
2022-08-07T16:25:56.142Z,4004.00
2022-08-07T16:30:53.884Z,3180.00
2022-08-07T16:35:59.660Z,2560.00
2022-08-07T16:41:01.419Z,2344.00
2022-08-07T16:46:34.710Z,2256.00
2022-08-07T16:51:20.667Z,2448.00
2022-08-07T16:55:55.992Z,2496.00
2022-08-07T17:00:55.820Z,2504.00
2022-08-07T17:06:19.248Z,2564.00
2022-08-07T17:10:58.017Z,2428.00
2022-08-07T17:15:59.193Z,2376.00
2022-08-07T17:20:58.795Z,2280.00
2022-08-07T17:26:00.926Z,2220.00
2022-08-07T17:31:01.332Z,2064.00
2022-08-07T17:36:01.315Z,1940.00
2022-08-07T17:42:02.409Z,1848.00
2022-08-07T17:46:03.624Z,1636.00
2022-08-07T17:51:02.779Z,1492.00
2022-08-07T17:56:06.951Z,1336.00
2022-08-07T18:01:02.534Z,1096.00
2022-08-07T18:06:09.427Z,944.00
2022-08-07T18:11:53.671Z,868.00
2022-08-07T18:16:04.112Z,656.00
2022-08-07T18:21:38.336Z,476.00
2022-08-07T18:26:14.821Z,328.00
2022-08-07T18:31:07.558Z,240.00
2022-08-07T18:36:08.095Z,196.00
2022-08-07T18:41:10.102Z,136.00
2022-08-07T18:46:25.729Z,88.00
2022-08-07T18:51:07.786Z,56.00
2022-08-07T18:56:09.188Z,28.00
2022-08-07T19:02:18.161Z,12.00
2022-08-07T19:06:10.117Z,8.00
2022-08-07T19:11:35.222Z,4.00
2022-08-07T19:17:00.386Z,4.00
2022-08-07T19:21:14.549Z,4.00
2022-08-07T19:26:25.142Z,0.00
2022-08-07T19:31:37.188Z,0.00
2022-08-07T19:36:11.955Z,0.00
2022-08-07T19:41:11.654Z,0.00
2022-08-07T19:46:12.249Z,0.00
2022-08-07T19:51:19.245Z,0.00
2022-08-07T19:58:03.554Z,0.00
2022-08-07T20:01:12.080Z,0.00
2022-08-07T20:06:15.621Z,0.00
2022-08-07T20:11:15.102Z,0.00
2022-08-07T20:16:15.867Z,0.00
2022-08-07T20:21:22.262Z,0.00
2022-08-07T20:26:32.283Z,0.00
2022-08-07T20:31:21.694Z,0.00
2022-08-07T20:36:17.504Z,0.00
2022-08-07T20:41:17.172Z,0.00
2022-08-07T20:46:28.619Z,0.00
2022-08-07T20:51:19.809Z,0.00
2022-08-07T20:56:20.219Z,0.00
2022-08-07T21:01:22.360Z,0.00
2022-08-07T21:06:26.023Z,0.00
2022-08-07T21:11:21.942Z,0.00
2022-08-07T21:16:20.313Z,0.00
2022-08-07T21:21:21.611Z,0.00
2022-08-07T21:26:22.571Z,0.00
2022-08-07T21:31:49.916Z,0.00
2022-08-07T21:36:31.843Z,0.00
2022-08-07T21:41:24.501Z,0.00
2022-08-07T21:46:25.204Z,0.00
2022-08-07T21:51:24.927Z,0.00
2022-08-07T21:56:39.682Z,0.00
2022-08-07T22:02:04.385Z,0.00
2022-08-07T22:06:30.961Z,0.00
2022-08-07T22:11:30.563Z,0.00
2022-08-07T22:16:38.624Z,0.00
2022-08-07T22:21:23.726Z,0.00
2022-08-07T22:26:23.722Z,0.00
2022-08-07T22:31:59.106Z,0.00
2022-08-07T22:36:24.488Z,0.00
2022-08-07T22:42:02.437Z,0.00
2022-08-07T22:47:02.948Z,0.00
2022-08-07T22:51:25.097Z,0.00
2022-08-07T22:56:25.121Z,0.00
2022-08-07T23:01:26.087Z,0.00
2022-08-07T23:06:25.712Z,0.00
2022-08-07T23:11:26.353Z,0.00
2022-08-07T23:16:46.639Z,0.00
2022-08-07T23:21:30.250Z,0.00
2022-08-07T23:26:29.430Z,0.00
2022-08-07T23:32:50.103Z,0.00
2022-08-07T23:36:29.101Z,0.00
2022-08-07T23:41:33.431Z,0.00
2022-08-07T23:46:27.492Z,0.00
2022-08-07T23:52:58.956Z,0.00
2022-08-07T23:56:26.816Z,0.00
